sensor_id;sensor_type;location;lat;lon;timestamp;pressure;altitude;pressure_sealevel;temperature;humidity
740;BME280;354;42.694;23.336;2023-02-18T00:01:26;96057.44;;;3.29;100.00
740;BME280;354;42.694;23.336;2023-02-18T00:03:52;96047.69;;;3.13;100.00
740;BME280;354;42.694;23.336;2023-02-18T00:06:22;96042.81;;;3.01;100.00
740;BME280;354;42.694;23.336;2023-02-18T00:08:49;96011.63;;;2.73;100.00
740;BME280;354;42.694;23.336;2023-02-18T00:11:17;96043.41;;;2.95;100.00
740;BME280;354;42.694;23.336;2023-02-18T00:13:43;96041.75;;;2.94;100.00
740;BME280;354;42.694;23.336;2023-02-18T00:16:10;96037.53;;;2.93;100.00
740;BME280;354;42.694;23.336;2023-02-18T00:18:37;96023.56;;;2.94;100.00
740;BME280;354;42.694;23.336;2023-02-18T00:21:04;96021.16;;;2.82;100.00
740;BME280;354;42.694;23.336;2023-02-18T00:23:30;96022.06;;;2.91;100.00
740;BME280;354;42.694;23.336;2023-02-18T00:26:07;96019.47;;;2.91;100.00
740;BME280;354;42.694;23.336;2023-02-18T00:28:33;95983.59;;;2.77;100.00
740;BME280;354;42.694;23.336;2023-02-18T00:30:59;96002.78;;;2.94;100.00
740;BME280;354;42.694;23.336;2023-02-18T00:33:29;95979.06;;;2.79;100.00
740;BME280;354;42.694;23.336;2023-02-18T00:36:00;95970.59;;;2.77;100.00
740;BME280;354;42.694;23.336;2023-02-18T00:38:26;95998.97;;;2.88;100.00
740;BME280;354;42.694;23.336;2023-02-18T00:40:51;96002.56;;;2.87;100.00
740;BME280;354;42.694;23.336;2023-02-18T00:43:17;95994.31;;;2.92;100.00
740;BME280;354;42.694;23.336;2023-02-18T00:45:42;95987.94;;;2.86;100.00
740;BME280;354;42.694;23.336;2023-02-18T00:48:07;95997.59;;;2.94;100.00
740;BME280;354;42.694;23.336;2023-02-18T00:50:33;95998.16;;;2.87;100.00
740;BME280;354;42.694;23.336;2023-02-18T00:52:58;95964.59;;;2.76;100.00
740;BME280;354;42.694;23.336;2023-02-18T00:55:24;95988.63;;;2.78;100.00
740;BME280;354;42.694;23.336;2023-02-18T00:57:49;95958.31;;;2.69;100.00
740;BME280;354;42.694;23.336;2023-02-18T01:00:15;95975.41;;;2.72;100.00
740;BME280;354;42.694;23.336;2023-02-18T01:02:40;95995.59;;;2.78;100.00
740;BME280;354;42.694;23.336;2023-02-18T01:05:06;95994.75;;;2.87;100.00
740;BME280;354;42.694;23.336;2023-02-18T01:07:31;95999.31;;;3.03;100.00
740;BME280;354;42.694;23.336;2023-02-18T01:09:56;95988.00;;;2.94;100.00
740;BME280;354;42.694;23.336;2023-02-18T01:12:22;95994.31;;;2.92;100.00
740;BME280;354;42.694;23.336;2023-02-18T01:14:47;95994.66;;;2.79;100.00
740;BME280;354;42.694;23.336;2023-02-18T01:17:13;95986.03;;;2.78;100.00
740;BME280;354;42.694;23.336;2023-02-18T01:19:38;95982.78;;;2.76;100.00
740;BME280;354;42.694;23.336;2023-02-18T01:22:03;95975.34;;;2.54;100.00
740;BME280;354;42.694;23.336;2023-02-18T01:24:31;95992.34;;;2.76;100.00
740;BME280;354;42.694;23.336;2023-02-18T01:26:56;95980.75;;;2.70;100.00
740;BME280;354;42.694;23.336;2023-02-18T01:29:22;95947.56;;;2.36;100.00
740;BME280;354;42.694;23.336;2023-02-18T01:31:47;95981.88;;;2.58;100.00
740;BME280;354;42.694;23.336;2023-02-18T01:34:13;95966.72;;;2.26;100.00
740;BME280;354;42.694;23.336;2023-02-18T01:36:39;95982.25;;;2.35;100.00
740;BME280;354;42.694;23.336;2023-02-18T01:39:05;95980.09;;;2.31;100.00
740;BME280;354;42.694;23.336;2023-02-18T01:41:30;95982.00;;;2.19;100.00
740;BME280;354;42.694;23.336;2023-02-18T01:44:18;95987.25;;;2.09;100.00
740;BME280;354;42.694;23.336;2023-02-18T01:46:44;95982.88;;;2.00;100.00
740;BME280;354;42.694;23.336;2023-02-18T01:49:12;95985.06;;;1.95;100.00
740;BME280;354;42.694;23.336;2023-02-18T01:51:42;95994.06;;;2.01;100.00
740;BME280;354;42.694;23.336;2023-02-18T01:54:22;95998.19;;;2.03;100.00
740;BME280;354;42.694;23.336;2023-02-18T01:57:10;95998.47;;;1.91;100.00
740;BME280;354;42.694;23.336;2023-02-18T01:59:59;96006.63;;;2.05;100.00
740;BME280;354;42.694;23.336;2023-02-18T02:02:29;95999.13;;;2.02;100.00
740;BME280;354;42.694;23.336;2023-02-18T02:04:56;95994.72;;;2.13;100.00
740;BME280;354;42.694;23.336;2023-02-18T02:07:23;95986.38;;;2.19;100.00
740;BME280;354;42.694;23.336;2023-02-18T02:09:50;95991.47;;;2.10;100.00
740;BME280;354;42.694;23.336;2023-02-18T02:15:21;95982.63;;;2.03;100.00
740;BME280;354;42.694;23.336;2023-02-18T02:35:04;95979.31;;;2.01;100.00
740;BME280;354;42.694;23.336;2023-02-18T02:40:31;95967.56;;;2.07;100.00
740;BME280;354;42.694;23.336;2023-02-18T02:46:35;95970.72;;;2.10;100.00
740;BME280;354;42.694;23.336;2023-02-18T02:52:17;95975.88;;;2.20;100.00
740;BME280;354;42.694;23.336;2023-02-18T02:54:45;95961.00;;;2.13;100.00
740;BME280;354;42.694;23.336;2023-02-18T02:59:43;95980.13;;;2.11;100.00
740;BME280;354;42.694;23.336;2023-02-18T03:02:33;95989.63;;;2.30;100.00
740;BME280;354;42.694;23.336;2023-02-18T03:18:40;95984.41;;;2.40;100.00
740;BME280;354;42.694;23.336;2023-02-18T03:21:17;95993.56;;;2.44;100.00
740;BME280;354;42.694;23.336;2023-02-18T03:23:56;95999.72;;;2.43;100.00
740;BME280;354;42.694;23.336;2023-02-18T03:26:23;95997.69;;;2.37;100.00
740;BME280;354;42.694;23.336;2023-02-18T03:28:51;96002.50;;;2.22;100.00
740;BME280;354;42.694;23.336;2023-02-18T03:31:21;96020.16;;;2.09;100.00
740;BME280;354;42.694;23.336;2023-02-18T03:34:02;96024.25;;;2.02;100.00
740;BME280;354;42.694;23.336;2023-02-18T03:36:31;96009.13;;;1.78;100.00
740;BME280;354;42.694;23.336;2023-02-18T03:39:04;96038.22;;;1.81;100.00
740;BME280;354;42.694;23.336;2023-02-18T03:41:31;96019.09;;;1.73;100.00
740;BME280;354;42.694;23.336;2023-02-18T03:44:01;96024.44;;;1.71;100.00
740;BME280;354;42.694;23.336;2023-02-18T03:46:27;96030.56;;;1.61;100.00
740;BME280;354;42.694;23.336;2023-02-18T03:48:53;96029.72;;;1.50;100.00
740;BME280;354;42.694;23.336;2023-02-18T03:51:19;96014.84;;;1.33;100.00
740;BME280;354;42.694;23.336;2023-02-18T03:53:45;96037.78;;;1.38;100.00
740;BME280;354;42.694;23.336;2023-02-18T03:56:10;96037.53;;;1.60;100.00
740;BME280;354;42.694;23.336;2023-02-18T03:58:36;96038.06;;;1.64;100.00
740;BME280;354;42.694;23.336;2023-02-18T04:01:01;96015.94;;;1.50;100.00
740;BME280;354;42.694;23.336;2023-02-18T04:03:27;96024.28;;;1.63;100.00
740;BME280;354;42.694;23.336;2023-02-18T04:05:53;96025.38;;;1.61;100.00
740;BME280;354;42.694;23.336;2023-02-18T04:08:18;96019.22;;;1.62;100.00
740;BME280;354;42.694;23.336;2023-02-18T04:10:43;96029.03;;;1.48;100.00
740;BME280;354;42.694;23.336;2023-02-18T04:13:09;96035.34;;;1.55;100.00
740;BME280;354;42.694;23.336;2023-02-18T04:15:34;96030.28;;;1.54;100.00
740;BME280;354;42.694;23.336;2023-02-18T04:17:59;96013.63;;;1.56;100.00
740;BME280;354;42.694;23.336;2023-02-18T04:20:25;96013.09;;;1.43;100.00
740;BME280;354;42.694;23.336;2023-02-18T04:22:50;95993.84;;;1.55;100.00
740;BME280;354;42.694;23.336;2023-02-18T04:25:15;95975.56;;;1.38;100.00
740;BME280;354;42.694;23.336;2023-02-18T04:27:41;95995.06;;;1.51;100.00
740;BME280;354;42.694;23.336;2023-02-18T04:30:07;95972.13;;;1.37;100.00
740;BME280;354;42.694;23.336;2023-02-18T04:32:32;96002.72;;;1.43;100.00
740;BME280;354;42.694;23.336;2023-02-18T04:34:58;95988.38;;;1.39;100.00
740;BME280;354;42.694;23.336;2023-02-18T04:37:23;96002.19;;;1.49;100.00
740;BME280;354;42.694;23.336;2023-02-18T04:39:48;96001.22;;;1.50;100.00
740;BME280;354;42.694;23.336;2023-02-18T04:42:14;96005.31;;;1.63;100.00
740;BME280;354;42.694;23.336;2023-02-18T04:44:39;96007.91;;;1.72;100.00
740;BME280;354;42.694;23.336;2023-02-18T04:47:05;96010.63;;;1.80;100.00
740;BME280;354;42.694;23.336;2023-02-18T04:49:32;95994.53;;;1.77;100.00
740;BME280;354;42.694;23.336;2023-02-18T04:51:57;95994.94;;;1.63;100.00
740;BME280;354;42.694;23.336;2023-02-18T04:54:23;96013.50;;;1.68;100.00
740;BME280;354;42.694;23.336;2023-02-18T04:56:48;96027.69;;;1.83;100.00
740;BME280;354;42.694;23.336;2023-02-18T04:59:14;96025.25;;;1.72;100.00
740;BME280;354;42.694;23.336;2023-02-18T05:01:39;96017.84;;;1.87;100.00
740;BME280;354;42.694;23.336;2023-02-18T05:04:04;96009.94;;;1.88;100.00
740;BME280;354;42.694;23.336;2023-02-18T05:06:30;96036.66;;;2.08;100.00
740;BME280;354;42.694;23.336;2023-02-18T05:08:55;96032.84;;;2.12;100.00
740;BME280;354;42.694;23.336;2023-02-18T05:11:21;95988.88;;;2.01;100.00
740;BME280;354;42.694;23.336;2023-02-18T05:13:46;96013.69;;;2.23;100.00
740;BME280;354;42.694;23.336;2023-02-18T05:16:11;96007.78;;;2.40;100.00
740;BME280;354;42.694;23.336;2023-02-18T05:18:38;96013.91;;;2.49;100.00
740;BME280;354;42.694;23.336;2023-02-18T05:21:03;96002.97;;;2.45;100.00
740;BME280;354;42.694;23.336;2023-02-18T05:23:29;95996.56;;;2.49;100.00
740;BME280;354;42.694;23.336;2023-02-18T05:25:54;96000.22;;;2.56;100.00
740;BME280;354;42.694;23.336;2023-02-18T05:28:20;96011.31;;;2.49;100.00
740;BME280;354;42.694;23.336;2023-02-18T05:30:45;96020.34;;;2.45;100.00
740;BME280;354;42.694;23.336;2023-02-18T05:33:10;95994.31;;;2.27;100.00
740;BME280;354;42.694;23.336;2023-02-18T05:35:36;95993.16;;;2.39;100.00
740;BME280;354;42.694;23.336;2023-02-18T05:38:01;95990.97;;;2.44;100.00
740;BME280;354;42.694;23.336;2023-02-18T05:40:26;96017.41;;;2.67;100.00
740;BME280;354;42.694;23.336;2023-02-18T05:42:52;96001.25;;;2.63;100.00
740;BME280;354;42.694;23.336;2023-02-18T05:45:17;96013.81;;;2.68;100.00
740;BME280;354;42.694;23.336;2023-02-18T05:47:43;96017.16;;;2.60;100.00
740;BME280;354;42.694;23.336;2023-02-18T05:50:08;96025.84;;;2.69;100.00
740;BME280;354;42.694;23.336;2023-02-18T05:52:34;96032.81;;;2.69;100.00
740;BME280;354;42.694;23.336;2023-02-18T05:54:59;96028.09;;;2.64;100.00
740;BME280;354;42.694;23.336;2023-02-18T05:57:25;96035.59;;;2.95;100.00
740;BME280;354;42.694;23.336;2023-02-18T05:59:50;96018.22;;;2.95;100.00
740;BME280;354;42.694;23.336;2023-02-18T06:02:16;96033.63;;;3.06;100.00
740;BME280;354;42.694;23.336;2023-02-18T06:04:41;96037.16;;;3.15;100.00
740;BME280;354;42.694;23.336;2023-02-18T06:07:07;96029.22;;;3.34;100.00
740;BME280;354;42.694;23.336;2023-02-18T06:09:32;96020.19;;;3.56;100.00
740;BME280;354;42.694;23.336;2023-02-18T06:11:58;96016.03;;;3.81;100.00
740;BME280;354;42.694;23.336;2023-02-18T06:14:23;96033.63;;;3.87;100.00
740;BME280;354;42.694;23.336;2023-02-18T06:16:49;96026.63;;;4.06;100.00
740;BME280;354;42.694;23.336;2023-02-18T06:19:14;96021.13;;;4.09;100.00
740;BME280;354;42.694;23.336;2023-02-18T06:21:40;96018.56;;;4.17;100.00
740;BME280;354;42.694;23.336;2023-02-18T06:24:05;96024.66;;;4.26;100.00
740;BME280;354;42.694;23.336;2023-02-18T06:26:31;96005.66;;;4.33;100.00
740;BME280;354;42.694;23.336;2023-02-18T06:28:58;96010.31;;;4.47;100.00
740;BME280;354;42.694;23.336;2023-02-18T06:31:23;96010.69;;;4.53;100.00
740;BME280;354;42.694;23.336;2023-02-18T06:33:49;95997.13;;;4.75;100.00
740;BME280;354;42.694;23.336;2023-02-18T06:36:14;96008.72;;;4.89;100.00
740;BME280;354;42.694;23.336;2023-02-18T06:38:41;96018.56;;;5.03;100.00
740;BME280;354;42.694;23.336;2023-02-18T06:41:07;95994.41;;;4.93;100.00
740;BME280;354;42.694;23.336;2023-02-18T06:43:32;96005.34;;;4.96;100.00
740;BME280;354;42.694;23.336;2023-02-18T06:45:58;96014.22;;;5.12;100.00
740;BME280;354;42.694;23.336;2023-02-18T06:48:23;96023.22;;;5.25;100.00
740;BME280;354;42.694;23.336;2023-02-18T06:50:49;95997.94;;;5.26;100.00
740;BME280;354;42.694;23.336;2023-02-18T06:53:15;96015.81;;;5.63;100.00
740;BME280;354;42.694;23.336;2023-02-18T06:55:44;96001.41;;;5.35;100.00
740;BME280;354;42.694;23.336;2023-02-18T06:58:10;96020.03;;;5.64;100.00
740;BME280;354;42.694;23.336;2023-02-18T07:00:35;96023.81;;;5.70;100.00
740;BME280;354;42.694;23.336;2023-02-18T07:03:01;96017.47;;;5.89;100.00
740;BME280;354;42.694;23.336;2023-02-18T07:05:27;96016.84;;;6.11;100.00
740;BME280;354;42.694;23.336;2023-02-18T07:07:52;96007.69;;;6.40;100.00
740;BME280;354;42.694;23.336;2023-02-18T07:10:18;96003.72;;;6.52;100.00
740;BME280;354;42.694;23.336;2023-02-18T07:12:43;96019.72;;;6.65;100.00
740;BME280;354;42.694;23.336;2023-02-18T07:15:09;96005.63;;;6.82;100.00
740;BME280;354;42.694;23.336;2023-02-18T07:17:34;96007.56;;;6.80;96.94
740;BME280;354;42.694;23.336;2023-02-18T07:20:00;96008.19;;;6.91;96.06
740;BME280;354;42.694;23.336;2023-02-18T07:22:25;96004.16;;;6.80;97.68
740;BME280;354;42.694;23.336;2023-02-18T07:24:51;95991.50;;;7.00;95.74
740;BME280;354;42.694;23.336;2023-02-18T07:27:18;95984.34;;;6.94;95.32
740;BME280;354;42.694;23.336;2023-02-18T07:29:43;95991.13;;;7.11;93.89
740;BME280;354;42.694;23.336;2023-02-18T07:32:11;96010.97;;;7.36;93.07
740;BME280;354;42.694;23.336;2023-02-18T07:34:37;95982.47;;;7.10;91.92
740;BME280;354;42.694;23.336;2023-02-18T07:37:02;96017.69;;;6.92;89.59
740;BME280;354;42.694;23.336;2023-02-18T07:39:38;96020.81;;;6.79;90.47
740;BME280;354;42.694;23.336;2023-02-18T07:42:04;96002.19;;;6.82;90.83
740;BME280;354;42.694;23.336;2023-02-18T07:44:29;95991.56;;;6.83;90.80
740;BME280;354;42.694;23.336;2023-02-18T07:46:55;96020.03;;;7.18;90.06
740;BME280;354;42.694;23.336;2023-02-18T07:49:20;96002.28;;;7.05;89.58
740;BME280;354;42.694;23.336;2023-02-18T07:51:47;95999.09;;;7.18;88.26
740;BME280;354;42.694;23.336;2023-02-18T07:54:12;96000.91;;;7.17;88.58
740;BME280;354;42.694;23.336;2023-02-18T07:56:38;96014.06;;;7.63;87.66
740;BME280;354;42.694;23.336;2023-02-18T07:59:04;96005.69;;;7.90;86.35
740;BME280;354;42.694;23.336;2023-02-18T08:01:29;96004.53;;;8.16;86.29
740;BME280;354;42.694;23.336;2023-02-18T08:03:54;95998.97;;;8.34;84.97
740;BME280;354;42.694;23.336;2023-02-18T08:06:24;96011.69;;;8.89;84.11
740;BME280;354;42.694;23.336;2023-02-18T08:08:50;96010.69;;;9.35;80.86
740;BME280;354;42.694;23.336;2023-02-18T08:11:15;96016.66;;;9.65;78.99
740;BME280;354;42.694;23.336;2023-02-18T08:13:41;96000.47;;;10.04;76.68
740;BME280;354;42.694;23.336;2023-02-18T08:16:08;95982.84;;;10.41;75.54
740;BME280;354;42.694;23.336;2023-02-18T08:18:33;95989.22;;;10.60;73.81
740;BME280;354;42.694;23.336;2023-02-18T08:20:59;95969.53;;;10.77;71.03
740;BME280;354;42.694;23.336;2023-02-18T08:23:24;95989.94;;;10.75;68.50
740;BME280;354;42.694;23.336;2023-02-18T08:25:51;95988.84;;;10.63;68.46
740;BME280;354;42.694;23.336;2023-02-18T08:28:18;95988.69;;;10.71;67.75
740;BME280;354;42.694;23.336;2023-02-18T08:30:46;95994.53;;;10.94;67.83
740;BME280;354;42.694;23.336;2023-02-18T08:33:11;95983.22;;;11.00;68.18
740;BME280;354;42.694;23.336;2023-02-18T08:35:37;95996.09;;;10.89;68.48
740;BME280;354;42.694;23.336;2023-02-18T08:38:03;96002.56;;;11.21;65.40
740;BME280;354;42.694;23.336;2023-02-18T08:40:28;95986.16;;;10.84;65.98
740;BME280;354;42.694;23.336;2023-02-18T08:42:54;95977.63;;;10.82;65.77
740;BME280;354;42.694;23.336;2023-02-18T08:45:19;95985.16;;;10.57;65.60
740;BME280;354;42.694;23.336;2023-02-18T08:47:44;95987.41;;;10.88;65.03
740;BME280;354;42.694;23.336;2023-02-18T08:50:10;95977.34;;;11.05;64.35
740;BME280;354;42.694;23.336;2023-02-18T08:52:35;95994.09;;;11.32;63.92
740;BME280;354;42.694;23.336;2023-02-18T08:55:01;96001.34;;;11.30;62.95
740;BME280;354;42.694;23.336;2023-02-18T08:57:27;95992.06;;;11.34;63.44
740;BME280;354;42.694;23.336;2023-02-18T08:59:53;95979.69;;;11.28;62.71
740;BME280;354;42.694;23.336;2023-02-18T09:02:18;95987.22;;;11.38;62.53
740;BME280;354;42.694;23.336;2023-02-18T09:04:44;95969.75;;;11.30;63.40
740;BME280;354;42.694;23.336;2023-02-18T09:07:09;95977.28;;;11.33;62.70
740;BME280;354;42.694;23.336;2023-02-18T09:09:34;95966.09;;;11.24;62.86
740;BME280;354;42.694;23.336;2023-02-18T09:12:00;95967.47;;;11.20;62.87
740;BME280;354;42.694;23.336;2023-02-18T09:14:25;95989.63;;;11.32;62.60
740;BME280;354;42.694;23.336;2023-02-18T09:16:51;95976.94;;;11.08;62.60
740;BME280;354;42.694;23.336;2023-02-18T09:19:17;95981.75;;;10.98;63.38
740;BME280;354;42.694;23.336;2023-02-18T09:21:43;95986.91;;;11.13;63.59
740;BME280;354;42.694;23.336;2023-02-18T09:24:08;95990.16;;;11.15;63.84
740;BME280;354;42.694;23.336;2023-02-18T09:26:34;95976.97;;;11.15;63.45
740;BME280;354;42.694;23.336;2023-02-18T09:29:00;95970.59;;;11.37;63.96
740;BME280;354;42.694;23.336;2023-02-18T09:31:26;95975.75;;;11.65;64.06
740;BME280;354;42.694;23.336;2023-02-18T09:33:58;95944.59;;;11.89;62.51
740;BME280;354;42.694;23.336;2023-02-18T09:36:24;95966.50;;;12.29;62.26
740;BME280;354;42.694;23.336;2023-02-18T09:38:50;95954.94;;;12.43;60.92
740;BME280;354;42.694;23.336;2023-02-18T09:41:43;95957.13;;;12.73;59.21
740;BME280;354;42.694;23.336;2023-02-18T09:44:17;95953.59;;;13.05;58.41
740;BME280;354;42.694;23.336;2023-02-18T09:49:26;95963.19;;;12.93;56.30
740;BME280;354;42.694;23.336;2023-02-18T09:51:53;95968.38;;;13.26;55.62
740;BME280;354;42.694;23.336;2023-02-18T09:54:19;95961.91;;;13.15;55.05
740;BME280;354;42.694;23.336;2023-02-18T09:56:46;95949.09;;;13.12;55.53
740;BME280;354;42.694;23.336;2023-02-18T09:59:16;95955.38;;;13.18;54.85
740;BME280;354;42.694;23.336;2023-02-18T10:01:42;95949.28;;;13.17;53.40
740;BME280;354;42.694;23.336;2023-02-18T10:04:38;95947.47;;;13.11;53.57
740;BME280;354;42.694;23.336;2023-02-18T10:07:05;95942.78;;;13.27;53.64
740;BME280;354;42.694;23.336;2023-02-18T10:09:37;95941.31;;;13.37;54.05
740;BME280;354;42.694;23.336;2023-02-18T10:12:19;95930.69;;;13.44;53.57
740;BME280;354;42.694;23.336;2023-02-18T10:14:57;95933.44;;;13.62;53.86
740;BME280;354;42.694;23.336;2023-02-18T10:17:24;95921.88;;;13.88;53.06
740;BME280;354;42.694;23.336;2023-02-18T10:19:52;95935.41;;;14.30;52.32
740;BME280;354;42.694;23.336;2023-02-18T10:22:19;95936.75;;;14.64;51.61
740;BME280;354;42.694;23.336;2023-02-18T10:24:52;95928.06;;;14.57;50.42
740;BME280;354;42.694;23.336;2023-02-18T10:27:30;95914.06;;;14.50;49.31
740;BME280;354;42.694;23.336;2023-02-18T10:30:08;95913.41;;;14.55;49.65
740;BME280;354;42.694;23.336;2023-02-18T10:32:45;95909.53;;;14.57;49.42
740;BME280;354;42.694;23.336;2023-02-18T10:35:24;95908.09;;;14.80;48.66
740;BME280;354;42.694;23.336;2023-02-18T10:49:18;95868.69;;;15.50;41.17
740;BME280;354;42.694;23.336;2023-02-18T10:51:51;95877.44;;;15.92;40.89
740;BME280;354;42.694;23.336;2023-02-18T10:54:17;95861.06;;;15.84;40.46
740;BME280;354;42.694;23.336;2023-02-18T10:56:47;95875.88;;;16.26;39.37
740;BME280;354;42.694;23.336;2023-02-18T10:59:24;95868.94;;;16.49;39.59
740;BME280;354;42.694;23.336;2023-02-18T11:01:58;95863.06;;;16.23;41.77
740;BME280;354;42.694;23.336;2023-02-18T11:04:33;95861.09;;;16.30;42.67
740;BME280;354;42.694;23.336;2023-02-18T11:07:05;95866.63;;;16.41;42.10
740;BME280;354;42.694;23.336;2023-02-18T11:09:54;95853.69;;;16.09;40.44
740;BME280;354;42.694;23.336;2023-02-18T11:12:32;95848.50;;;15.91;40.56
740;BME280;354;42.694;23.336;2023-02-18T11:15:15;95857.38;;;15.96;40.15
740;BME280;354;42.694;23.336;2023-02-18T11:17:44;95844.63;;;15.63;39.03
740;BME280;354;42.694;23.336;2023-02-18T11:20:32;95848.47;;;15.49;39.42
740;BME280;354;42.694;23.336;2023-02-18T11:22:59;95830.94;;;15.06;39.93
740;BME280;354;42.694;23.336;2023-02-18T11:25:39;95838.41;;;14.79;39.76
740;BME280;354;42.694;23.336;2023-02-18T11:28:25;95823.97;;;14.93;40.36
740;BME280;354;42.694;23.336;2023-02-18T11:30:57;95829.81;;;14.84;40.18
740;BME280;354;42.694;23.336;2023-02-18T11:33:42;95815.09;;;14.69;40.33
740;BME280;354;42.694;23.336;2023-02-18T11:41:20;95803.47;;;14.70;40.68
740;BME280;354;42.694;23.336;2023-02-18T11:43:49;95804.34;;;14.83;40.87
740;BME280;354;42.694;23.336;2023-02-18T11:46:20;95763.13;;;14.87;41.13
740;BME280;354;42.694;23.336;2023-02-18T11:48:47;95801.03;;;15.17;40.74
740;BME280;354;42.694;23.336;2023-02-18T11:51:29;95773.03;;;15.21;41.46
740;BME280;354;42.694;23.336;2023-02-18T11:54:09;95754.59;;;15.15;40.86
740;BME280;354;42.694;23.336;2023-02-18T11:56:57;95785.63;;;15.38;40.67
740;BME280;354;42.694;23.336;2023-02-18T11:59:23;95773.31;;;15.43;40.45
740;BME280;354;42.694;23.336;2023-02-18T12:01:52;95767.81;;;15.57;40.44
740;BME280;354;42.694;23.336;2023-02-18T12:04:26;95759.34;;;15.66;40.16
740;BME280;354;42.694;23.336;2023-02-18T12:07:22;95761.06;;;15.72;40.48
740;BME280;354;42.694;23.336;2023-02-18T12:09:51;95762.44;;;15.75;41.00
740;BME280;354;42.694;23.336;2023-02-18T12:12:31;95758.75;;;15.88;40.93
740;BME280;354;42.694;23.336;2023-02-18T12:15:02;95755.50;;;15.62;41.13
740;BME280;354;42.694;23.336;2023-02-18T12:17:55;95755.41;;;15.80;41.04
740;BME280;354;42.694;23.336;2023-02-18T12:26:25;95758.41;;;15.84;42.11
740;BME280;354;42.694;23.336;2023-02-18T12:31:48;95751.22;;;15.61;42.74
740;BME280;354;42.694;23.336;2023-02-18T12:34:42;95736.06;;;15.38;42.90
740;BME280;354;42.694;23.336;2023-02-18T12:53:30;95698.28;;;15.54;42.46
740;BME280;354;42.694;23.336;2023-02-18T13:01:39;95699.81;;;15.86;40.90
740;BME280;354;42.694;23.336;2023-02-18T13:04:31;95702.25;;;15.99;40.44
740;BME280;354;42.694;23.336;2023-02-18T13:15:41;95695.53;;;16.48;39.43
740;BME280;354;42.694;23.336;2023-02-18T13:18:15;95701.72;;;16.66;39.41
740;BME280;354;42.694;23.336;2023-02-18T13:20:51;95694.09;;;16.98;39.07
740;BME280;354;42.694;23.336;2023-02-18T13:23:23;95685.75;;;16.77;40.47
740;BME280;354;42.694;23.336;2023-02-18T13:26:02;95700.66;;;16.95;40.60
740;BME280;354;42.694;23.336;2023-02-18T13:31:46;95697.13;;;16.21;42.07
740;BME280;354;42.694;23.336;2023-02-18T13:36:59;95696.91;;;16.11;42.83
740;BME280;354;42.694;23.336;2023-02-18T13:39:29;95690.94;;;15.80;43.05
740;BME280;354;42.694;23.336;2023-02-18T13:42:20;95692.78;;;15.68;43.12
740;BME280;354;42.694;23.336;2023-02-18T13:47:43;95697.59;;;15.59;43.41
740;BME280;354;42.694;23.336;2023-02-18T13:55:32;95700.13;;;15.42;43.94
740;BME280;354;42.694;23.336;2023-02-18T13:57:59;95681.56;;;15.31;43.88
740;BME280;354;42.694;23.336;2023-02-18T14:00:35;95696.44;;;15.32;43.73
740;BME280;354;42.694;23.336;2023-02-18T14:03:30;95702.22;;;15.40;43.97
740;BME280;354;42.694;23.336;2023-02-18T14:05:57;95691.59;;;15.40;43.90
740;BME280;354;42.694;23.336;2023-02-18T14:08:34;95698.63;;;15.35;44.15
740;BME280;354;42.694;23.336;2023-02-18T14:13:53;95687.78;;;15.13;44.16
740;BME280;354;42.694;23.336;2023-02-18T14:16:21;95700.09;;;15.19;44.29
740;BME280;354;42.694;23.336;2023-02-18T14:18:55;95695.16;;;15.22;44.12
740;BME280;354;42.694;23.336;2023-02-18T14:21:35;95668.97;;;15.02;44.12
740;BME280;354;42.694;23.336;2023-02-18T14:24:02;95675.63;;;14.93;44.56
740;BME280;354;42.694;23.336;2023-02-18T14:26:31;95678.75;;;15.02;44.39
740;BME280;354;42.694;23.336;2023-02-18T14:29:05;95697.06;;;15.03;44.79
740;BME280;354;42.694;23.336;2023-02-18T14:31:43;95694.16;;;14.93;44.65
740;BME280;354;42.694;23.336;2023-02-18T14:38:00;95710.63;;;14.84;45.33
740;BME280;354;42.694;23.336;2023-02-18T14:51:49;95694.34;;;14.68;45.87
740;BME280;354;42.694;23.336;2023-02-18T14:54:19;95703.75;;;14.64;45.91
740;BME280;354;42.694;23.336;2023-02-18T14:57:02;95661.72;;;14.38;46.47
740;BME280;354;42.694;23.336;2023-02-18T14:59:39;95687.28;;;14.44;46.70
740;BME280;354;42.694;23.336;2023-02-18T15:02:21;95704.81;;;14.45;46.31
740;BME280;354;42.694;23.336;2023-02-18T15:04:47;95671.44;;;14.26;46.90
740;BME280;354;42.694;23.336;2023-02-18T15:07:21;95683.22;;;14.30;46.77
740;BME280;354;42.694;23.336;2023-02-18T15:09:52;95680.41;;;14.06;47.08
740;BME280;354;42.694;23.336;2023-02-18T15:12:21;95701.06;;;14.16;47.26
740;BME280;354;42.694;23.336;2023-02-18T15:14:50;95704.19;;;14.13;47.38
740;BME280;354;42.694;23.336;2023-02-18T15:17:25;95699.97;;;14.05;47.64
740;BME280;354;42.694;23.336;2023-02-18T15:19:55;95694.34;;;14.02;47.65
740;BME280;354;42.694;23.336;2023-02-18T15:22:24;95679.63;;;13.87;47.93
740;BME280;354;42.694;23.336;2023-02-18T15:24:52;95689.78;;;13.90;48.28
740;BME280;354;42.694;23.336;2023-02-18T15:27:27;95685.94;;;13.86;48.35
740;BME280;354;42.694;23.336;2023-02-18T15:30:26;95683.44;;;13.73;48.56
740;BME280;354;42.694;23.336;2023-02-18T15:32:55;95684.47;;;13.72;48.85
740;BME280;354;42.694;23.336;2023-02-18T15:35:26;95677.63;;;13.64;48.99
740;BME280;354;42.694;23.336;2023-02-18T15:37:55;95669.97;;;13.56;49.36
740;BME280;354;42.694;23.336;2023-02-18T15:40:24;95653.53;;;13.36;49.73
740;BME280;354;42.694;23.336;2023-02-18T15:42:51;95658.00;;;13.35;49.97
740;BME280;354;42.694;23.336;2023-02-18T15:45:22;95670.97;;;13.37;50.08
740;BME280;354;42.694;23.336;2023-02-18T15:47:54;95666.13;;;13.34;50.38
740;BME280;354;42.694;23.336;2023-02-18T15:52:49;95637.25;;;13.07;51.09
740;BME280;354;42.694;23.336;2023-02-18T15:57:55;95661.81;;;13.14;51.31
740;BME280;354;42.694;23.336;2023-02-18T16:00:31;95657.00;;;13.05;51.77
740;BME280;354;42.694;23.336;2023-02-18T16:03:27;95664.69;;;13.06;52.04
740;BME280;354;42.694;23.336;2023-02-18T16:08:35;95647.56;;;12.90;52.68
740;BME280;354;42.694;23.336;2023-02-18T16:11:11;95648.81;;;12.88;52.87